sensor_id;sensor_type;location;lat;lon;timestamp;pressure;altitude;pressure_sealevel;temperature;humidity
14393;BME280;7281;42.678;23.372;2023-01-01T00:02:06;96561.53;;;6.04;60.42
14393;BME280;7281;42.678;23.372;2023-01-01T00:04:33;96564.00;;;6.12;60.31
14393;BME280;7281;42.678;23.372;2023-01-01T00:07:00;96556.59;;;6.09;60.20
14393;BME280;7281;42.678;23.372;2023-01-01T00:09:27;96558.06;;;6.18;60.64
14393;BME280;7281;42.678;23.372;2023-01-01T00:12:12;96563.50;;;6.23;60.17
14393;BME280;7281;42.678;23.372;2023-01-01T00:14:39;96562.19;;;6.34;60.19
14393;BME280;7281;42.678;23.372;2023-01-01T00:17:09;96559.72;;;6.26;59.99
14393;BME280;7281;42.678;23.372;2023-01-01T00:19:35;96573.69;;;6.18;60.21
14393;BME280;7281;42.678;23.372;2023-01-01T00:22:02;96557.72;;;6.00;60.07
14393;BME280;7281;42.678;23.372;2023-01-01T00:24:49;96560.56;;;6.05;59.46
14393;BME280;7281;42.678;23.372;2023-01-01T00:27:16;96569.47;;;5.96;59.33
14393;BME280;7281;42.678;23.372;2023-01-01T00:29:43;96579.38;;;5.86;59.33
14393;BME280;7281;42.678;23.372;2023-01-01T00:32:10;96567.97;;;5.51;59.35
14393;BME280;7281;42.678;23.372;2023-01-01T00:34:44;96586.34;;;5.50;59.88
14393;BME280;7281;42.678;23.372;2023-01-01T00:37:12;96585.72;;;5.48;60.17
14393;BME280;7281;42.678;23.372;2023-01-01T00:39:40;96580.34;;;5.35;61.32
14393;BME280;7281;42.678;23.372;2023-01-01T00:42:07;96574.09;;;5.44;60.69
14393;BME280;7281;42.678;23.372;2023-01-01T00:44:33;96579.69;;;5.62;59.94
14393;BME280;7281;42.678;23.372;2023-01-01T00:47:00;96569.63;;;5.38;59.97
14393;BME280;7281;42.678;23.372;2023-01-01T00:49:27;96586.09;;;5.45;60.46
14393;BME280;7281;42.678;23.372;2023-01-01T00:51:54;96589.47;;;5.60;59.73
14393;BME280;7281;42.678;23.372;2023-01-01T00:54:21;96578.38;;;5.37;59.95
14393;BME280;7281;42.678;23.372;2023-01-01T00:56:48;96580.72;;;5.32;60.84
14393;BME280;7281;42.678;23.372;2023-01-01T00:59:14;96594.00;;;4.78;61.88
14393;BME280;7281;42.678;23.372;2023-01-01T01:01:41;96589.03;;;4.40;64.00
14393;BME280;7281;42.678;23.372;2023-01-01T01:04:08;96594.38;;;4.38;65.45
14393;BME280;7281;42.678;23.372;2023-01-01T01:06:35;96584.47;;;4.56;65.19
14393;BME280;7281;42.678;23.372;2023-01-01T01:09:02;96585.59;;;4.76;64.51
14393;BME280;7281;42.678;23.372;2023-01-01T01:11:30;96555.94;;;4.71;64.97
14393;BME280;7281;42.678;23.372;2023-01-01T01:13:56;96582.72;;;5.00;65.61
14393;BME280;7281;42.678;23.372;2023-01-01T01:16:26;96582.53;;;5.16;64.94
14393;BME280;7281;42.678;23.372;2023-01-01T01:19:00;96572.44;;;5.07;64.43
14393;BME280;7281;42.678;23.372;2023-01-01T01:21:29;96577.16;;;5.33;64.04
14393;BME280;7281;42.678;23.372;2023-01-01T01:23:57;96585.06;;;5.25;63.89
14393;BME280;7281;42.678;23.372;2023-01-01T01:26:29;96577.22;;;5.39;62.95
14393;BME280;7281;42.678;23.372;2023-01-01T01:28:57;96581.63;;;5.39;61.79
14393;BME280;7281;42.678;23.372;2023-01-01T01:31:27;96560.16;;;5.15;61.90
14393;BME280;7281;42.678;23.372;2023-01-01T01:33:55;96556.84;;;4.78;62.50
14393;BME280;7281;42.678;23.372;2023-01-01T01:36:23;96570.91;;;5.12;62.90
14393;BME280;7281;42.678;23.372;2023-01-01T01:38:50;96562.56;;;5.17;62.10
14393;BME280;7281;42.678;23.372;2023-01-01T01:41:20;96571.34;;;5.16;62.10
14393;BME280;7281;42.678;23.372;2023-01-01T01:44:00;96568.94;;;5.14;63.19
14393;BME280;7281;42.678;23.372;2023-01-01T01:46:32;96567.47;;;5.27;62.17
14393;BME280;7281;42.678;23.372;2023-01-01T01:49:04;96570.38;;;5.02;63.33
14393;BME280;7281;42.678;23.372;2023-01-01T01:51:36;96566.84;;;5.25;61.94
14393;BME280;7281;42.678;23.372;2023-01-01T01:54:13;96574.59;;;5.18;61.19
14393;BME280;7281;42.678;23.372;2023-01-01T01:56:46;96569.50;;;5.46;60.35
14393;BME280;7281;42.678;23.372;2023-01-01T01:59:17;96573.19;;;5.37;60.53
14393;BME280;7281;42.678;23.372;2023-01-01T02:01:45;96580.47;;;5.27;60.92
14393;BME280;7281;42.678;23.372;2023-01-01T02:04:12;96578.19;;;5.53;60.20
14393;BME280;7281;42.678;23.372;2023-01-01T02:06:39;96581.06;;;5.58;60.80
14393;BME280;7281;42.678;23.372;2023-01-01T02:09:07;96584.34;;;5.31;61.82
14393;BME280;7281;42.678;23.372;2023-01-01T02:11:34;96589.72;;;5.29;62.01
14393;BME280;7281;42.678;23.372;2023-01-01T02:14:02;96569.91;;;5.28;61.63
14393;BME280;7281;42.678;23.372;2023-01-01T02:16:42;96578.97;;;4.59;64.28
14393;BME280;7281;42.678;23.372;2023-01-01T02:22:28;96598.81;;;4.52;66.25
14393;BME280;7281;42.678;23.372;2023-01-01T02:30:10;96595.19;;;4.90;64.96
14393;BME280;7281;42.678;23.372;2023-01-01T02:32:44;96585.44;;;4.92;64.28
14393;BME280;7281;42.678;23.372;2023-01-01T02:40:41;96588.72;;;5.66;62.91
14393;BME280;7281;42.678;23.372;2023-01-01T02:43:08;96575.59;;;5.88;62.27
14393;BME280;7281;42.678;23.372;2023-01-01T02:45:35;96585.28;;;5.80;61.68
14393;BME280;7281;42.678;23.372;2023-01-01T02:48:04;96581.63;;;5.74;61.34
14393;BME280;7281;42.678;23.372;2023-01-01T02:50:31;96586.25;;;5.58;60.94
14393;BME280;7281;42.678;23.372;2023-01-01T03:05:00;96577.88;;;4.54;64.94
14393;BME280;7281;42.678;23.372;2023-01-01T03:10:11;96592.16;;;5.01;62.23
14393;BME280;7281;42.678;23.372;2023-01-01T03:15:44;96591.72;;;4.98;61.15
14393;BME280;7281;42.678;23.372;2023-01-01T03:18:19;96596.59;;;5.07;61.27
14393;BME280;7281;42.678;23.372;2023-01-01T03:20:49;96586.78;;;5.03;60.75
14393;BME280;7281;42.678;23.372;2023-01-01T03:23:21;96586.13;;;4.86;61.08
14393;BME280;7281;42.678;23.372;2023-01-01T03:25:53;96581.03;;;4.93;60.90
14393;BME280;7281;42.678;23.372;2023-01-01T03:28:27;96587.91;;;4.71;61.39
14393;BME280;7281;42.678;23.372;2023-01-01T03:30:56;96549.16;;;4.70;60.98
14393;BME280;7281;42.678;23.372;2023-01-01T03:33:37;96579.41;;;5.06;60.61
14393;BME280;7281;42.678;23.372;2023-01-01T03:36:15;96577.19;;;5.03;60.46
14393;BME280;7281;42.678;23.372;2023-01-01T03:38:56;96574.41;;;5.05;60.15
14393;BME280;7281;42.678;23.372;2023-01-01T03:44:31;96581.84;;;4.93;60.54
14393;BME280;7281;42.678;23.372;2023-01-01T03:47:00;96581.81;;;4.64;61.25
14393;BME280;7281;42.678;23.372;2023-01-01T03:49:29;96577.00;;;4.76;61.03
14393;BME280;7281;42.678;23.372;2023-01-01T04:00:07;96589.25;;;4.16;62.70
14393;BME280;7281;42.678;23.372;2023-01-01T04:02:59;96573.28;;;4.04;62.56
14393;BME280;7281;42.678;23.372;2023-01-01T04:05:28;96584.69;;;4.18;62.65
14393;BME280;7281;42.678;23.372;2023-01-01T04:08:00;96586.66;;;4.16;62.62
14393;BME280;7281;42.678;23.372;2023-01-01T04:10:29;96587.66;;;4.29;62.69
14393;BME280;7281;42.678;23.372;2023-01-01T04:12:56;96597.94;;;4.23;62.29
14393;BME280;7281;42.678;23.372;2023-01-01T04:15:26;96591.38;;;4.12;62.38
14393;BME280;7281;42.678;23.372;2023-01-01T04:17:53;96583.41;;;4.13;61.84
14393;BME280;7281;42.678;23.372;2023-01-01T04:20:21;96598.16;;;4.13;62.17
14393;BME280;7281;42.678;23.372;2023-01-01T04:22:48;96602.22;;;4.16;61.85
14393;BME280;7281;42.678;23.372;2023-01-01T04:25:16;96588.13;;;3.87;62.31
14393;BME280;7281;42.678;23.372;2023-01-01T04:27:43;96592.03;;;3.83;62.54
14393;BME280;7281;42.678;23.372;2023-01-01T04:30:12;96604.03;;;4.07;62.19
14393;BME280;7281;42.678;23.372;2023-01-01T04:32:39;96606.34;;;4.25;61.60
14393;BME280;7281;42.678;23.372;2023-01-01T04:35:07;96609.00;;;4.17;61.62
14393;BME280;7281;42.678;23.372;2023-01-01T04:37:35;96605.03;;;4.06;61.80
14393;BME280;7281;42.678;23.372;2023-01-01T04:40:02;96608.09;;;4.09;61.26
14393;BME280;7281;42.678;23.372;2023-01-01T04:42:29;96605.03;;;4.06;61.50
14393;BME280;7281;42.678;23.372;2023-01-01T04:44:56;96610.19;;;4.14;61.48
14393;BME280;7281;42.678;23.372;2023-01-01T04:47:23;96598.94;;;3.99;62.10
14393;BME280;7281;42.678;23.372;2023-01-01T04:49:52;96601.56;;;3.91;62.34
14393;BME280;7281;42.678;23.372;2023-01-01T04:52:20;96613.25;;;3.87;62.15
14393;BME280;7281;42.678;23.372;2023-01-01T04:54:47;96599.88;;;3.98;62.04
14393;BME280;7281;42.678;23.372;2023-01-01T04:57:14;96598.06;;;4.06;61.69
14393;BME280;7281;42.678;23.372;2023-01-01T04:59:41;96596.09;;;3.86;62.39
14393;BME280;7281;42.678;23.372;2023-01-01T05:02:07;96601.84;;;3.96;62.14
14393;BME280;7281;42.678;23.372;2023-01-01T05:04:34;96610.72;;;3.79;62.57
14393;BME280;7281;42.678;23.372;2023-01-01T05:07:01;96615.09;;;3.78;62.57
14393;BME280;7281;42.678;23.372;2023-01-01T05:09:30;96612.28;;;3.88;62.56
14393;BME280;7281;42.678;23.372;2023-01-01T05:11:57;96607.38;;;3.93;62.71
14393;BME280;7281;42.678;23.372;2023-01-01T05:14:25;96604.88;;;3.85;62.89
14393;BME280;7281;42.678;23.372;2023-01-01T05:16:52;96603.22;;;3.84;63.03
14393;BME280;7281;42.678;23.372;2023-01-01T05:19:19;96606.81;;;3.83;62.92
14393;BME280;7281;42.678;23.372;2023-01-01T05:21:45;96610.84;;;3.85;62.96
14393;BME280;7281;42.678;23.372;2023-01-01T05:24:12;96597.94;;;4.00;62.34
14393;BME280;7281;42.678;23.372;2023-01-01T05:26:41;96611.44;;;3.95;62.49
14393;BME280;7281;42.678;23.372;2023-01-01T05:29:09;96620.31;;;4.01;62.20
14393;BME280;7281;42.678;23.372;2023-01-01T05:31:43;96620.06;;;3.88;62.24
14393;BME280;7281;42.678;23.372;2023-01-01T05:34:10;96623.31;;;3.90;62.31
14393;BME280;7281;42.678;23.372;2023-01-01T05:36:37;96619.09;;;3.89;61.92
14393;BME280;7281;42.678;23.372;2023-01-01T05:39:10;96623.31;;;3.90;62.10
14393;BME280;7281;42.678;23.372;2023-01-01T05:41:39;96622.31;;;3.91;62.11
14393;BME280;7281;42.678;23.372;2023-01-01T05:44:06;96627.84;;;3.88;62.35
14393;BME280;7281;42.678;23.372;2023-01-01T05:46:34;96621.09;;;3.79;62.81
14393;BME280;7281;42.678;23.372;2023-01-01T05:49:02;96618.50;;;3.79;62.90
14393;BME280;7281;42.678;23.372;2023-01-01T05:51:29;96615.84;;;3.87;62.74
14393;BME280;7281;42.678;23.372;2023-01-01T05:53:57;96619.47;;;3.78;62.52
14393;BME280;7281;42.678;23.372;2023-01-01T05:56:25;96619.16;;;3.81;62.72
14393;BME280;7281;42.678;23.372;2023-01-01T05:58:53;96609.81;;;3.72;62.88
14393;BME280;7281;42.678;23.372;2023-01-01T06:01:21;96622.94;;;3.70;63.04
14393;BME280;7281;42.678;23.372;2023-01-01T06:03:50;96617.41;;;3.73;62.78
14393;BME280;7281;42.678;23.372;2023-01-01T06:06:19;96620.88;;;3.58;63.04
14393;BME280;7281;42.678;23.372;2023-01-01T06:08:51;96618.53;;;3.01;65.30
14393;BME280;7281;42.678;23.372;2023-01-01T06:11:19;96631.38;;;2.71;67.23
14393;BME280;7281;42.678;23.372;2023-01-01T06:13:47;96634.66;;;2.17;70.86
14393;BME280;7281;42.678;23.372;2023-01-01T06:16:16;96629.72;;;2.94;68.55
14393;BME280;7281;42.678;23.372;2023-01-01T06:18:43;96622.06;;;3.47;65.53
14393;BME280;7281;42.678;23.372;2023-01-01T06:21:18;96632.41;;;3.86;64.24
14393;BME280;7281;42.678;23.372;2023-01-01T06:23:46;96634.59;;;3.97;63.51
14393;BME280;7281;42.678;23.372;2023-01-01T06:26:15;96635.97;;;3.85;63.31
14393;BME280;7281;42.678;23.372;2023-01-01T06:28:43;96632.75;;;3.83;63.17
14393;BME280;7281;42.678;23.372;2023-01-01T06:31:13;96638.97;;;3.96;62.60
14393;BME280;7281;42.678;23.372;2023-01-01T06:33:41;96644.28;;;4.03;62.56
14393;BME280;7281;42.678;23.372;2023-01-01T06:36:10;96637.75;;;4.07;62.38
14393;BME280;7281;42.678;23.372;2023-01-01T06:38:40;96636.13;;;4.14;62.19
14393;BME280;7281;42.678;23.372;2023-01-01T06:41:10;96651.03;;;4.12;62.53
14393;BME280;7281;42.678;23.372;2023-01-01T06:43:37;96652.66;;;4.13;62.34
14393;BME280;7281;42.678;23.372;2023-01-01T06:46:25;96649.94;;;4.29;62.19
14393;BME280;7281;42.678;23.372;2023-01-01T06:48:58;96657.06;;;4.27;62.24
14393;BME280;7281;42.678;23.372;2023-01-01T06:51:28;96660.53;;;4.42;61.90
14393;BME280;7281;42.678;23.372;2023-01-01T06:53:57;96664.13;;;4.41;61.83
14393;BME280;7281;42.678;23.372;2023-01-01T06:56:25;96669.31;;;4.41;62.29
14393;BME280;7281;42.678;23.372;2023-01-01T06:58:52;96673.09;;;4.53;61.87
14393;BME280;7281;42.678;23.372;2023-01-01T07:01:22;96677.38;;;4.46;61.88
14393;BME280;7281;42.678;23.372;2023-01-01T07:03:51;96683.84;;;4.50;62.04
14393;BME280;7281;42.678;23.372;2023-01-01T07:06:19;96681.88;;;4.52;62.17
14393;BME280;7281;42.678;23.372;2023-01-01T07:08:46;96674.59;;;4.70;61.76
14393;BME280;7281;42.678;23.372;2023-01-01T07:11:13;96674.38;;;4.94;61.34
14393;BME280;7281;42.678;23.372;2023-01-01T07:13:40;96665.78;;;4.94;61.28
14393;BME280;7281;42.678;23.372;2023-01-01T07:16:07;96675.28;;;5.01;61.02
14393;BME280;7281;42.678;23.372;2023-01-01T07:18:39;96666.06;;;5.43;59.70
14393;BME280;7281;42.678;23.372;2023-01-01T07:23:59;96662.50;;;5.44;60.33
14393;BME280;7281;42.678;23.372;2023-01-01T07:26:27;96668.09;;;5.76;60.11
14393;BME280;7281;42.678;23.372;2023-01-01T07:28:54;96652.06;;;5.73;59.61
14393;BME280;7281;42.678;23.372;2023-01-01T07:31:31;96661.53;;;5.66;60.49
14393;BME280;7281;42.678;23.372;2023-01-01T07:33:58;96655.72;;;5.78;59.82
14393;BME280;7281;42.678;23.372;2023-01-01T07:36:25;96661.34;;;5.82;59.60
14393;BME280;7281;42.678;23.372;2023-01-01T07:38:53;96667.13;;;5.63;60.82
14393;BME280;7281;42.678;23.372;2023-01-01T07:41:20;96668.53;;;5.80;60.78
14393;BME280;7281;42.678;23.372;2023-01-01T07:43:47;96667.66;;;5.73;60.54
14393;BME280;7281;42.678;23.372;2023-01-01T07:46:14;96665.50;;;5.91;62.30
14393;BME280;7281;42.678;23.372;2023-01-01T07:48:42;96663.38;;;6.01;60.82
14393;BME280;7281;42.678;23.372;2023-01-01T07:51:09;96655.16;;;5.97;60.32
14393;BME280;7281;42.678;23.372;2023-01-01T07:53:35;96660.94;;;6.14;60.29
14393;BME280;7281;42.678;23.372;2023-01-01T07:56:02;96658.44;;;6.06;60.07
14393;BME280;7281;42.678;23.372;2023-01-01T07:58:29;96660.81;;;6.22;59.58
14393;BME280;7281;42.678;23.372;2023-01-01T08:00:56;96666.28;;;6.27;59.51
14393;BME280;7281;42.678;23.372;2023-01-01T08:03:23;96658.84;;;5.74;60.27
14393;BME280;7281;42.678;23.372;2023-01-01T08:05:50;96667.88;;;6.07;59.81
14393;BME280;7281;42.678;23.372;2023-01-01T08:08:17;96668.94;;;6.55;59.17
14393;BME280;7281;42.678;23.372;2023-01-01T08:10:44;96668.13;;;6.54;58.46
14393;BME280;7281;42.678;23.372;2023-01-01T08:13:11;96670.69;;;6.75;57.61
14393;BME280;7281;42.678;23.372;2023-01-01T08:15:38;96677.91;;;7.01;57.03
14393;BME280;7281;42.678;23.372;2023-01-01T08:18:04;96675.91;;;6.96;56.89
14393;BME280;7281;42.678;23.372;2023-01-01T08:20:32;96671.53;;;7.38;56.35
14393;BME280;7281;42.678;23.372;2023-01-01T08:23:01;96679.66;;;7.56;56.43
14393;BME280;7281;42.678;23.372;2023-01-01T08:25:33;96679.31;;;7.59;56.42
14393;BME280;7281;42.678;23.372;2023-01-01T08:28:00;96676.50;;;7.67;55.81
14393;BME280;7281;42.678;23.372;2023-01-01T08:30:27;96686.38;;;7.71;56.04
14393;BME280;7281;42.678;23.372;2023-01-01T08:32:54;96658.97;;;7.48;56.70
14393;BME280;7281;42.678;23.372;2023-01-01T08:35:21;96681.13;;;7.65;56.27
14393;BME280;7281;42.678;23.372;2023-01-01T08:37:48;96666.53;;;7.83;56.44
14393;BME280;7281;42.678;23.372;2023-01-01T08:40:15;96681.50;;;8.02;55.50
14393;BME280;7281;42.678;23.372;2023-01-01T08:42:42;96679.88;;;8.01;55.41
14393;BME280;7281;42.678;23.372;2023-01-01T08:45:09;96675.63;;;8.61;57.65
14393;BME280;7281;42.678;23.372;2023-01-01T08:47:36;96671.59;;;8.58;57.90
14393;BME280;7281;42.678;23.372;2023-01-01T08:50:03;96682.22;;;8.37;57.01
14393;BME280;7281;42.678;23.372;2023-01-01T08:52:30;96667.16;;;8.65;54.28
14393;BME280;7281;42.678;23.372;2023-01-01T08:54:57;96676.25;;;8.82;54.13
14393;BME280;7281;42.678;23.372;2023-01-01T08:57:24;96674.41;;;8.96;53.49
14393;BME280;7281;42.678;23.372;2023-01-01T08:59:51;96669.19;;;9.02;52.84
14393;BME280;7281;42.678;23.372;2023-01-01T09:02:18;96667.19;;;8.72;53.49
14393;BME280;7281;42.678;23.372;2023-01-01T09:04:45;96662.34;;;8.62;53.16
14393;BME280;7281;42.678;23.372;2023-01-01T09:07:11;96661.53;;;8.94;53.92
14393;BME280;7281;42.678;23.372;2023-01-01T09:09:38;96654.31;;;8.96;53.42
14393;BME280;7281;42.678;23.372;2023-01-01T09:12:05;96653.88;;;9.26;52.85
14393;BME280;7281;42.678;23.372;2023-01-01T09:14:33;96646.63;;;9.34;52.75
14393;BME280;7281;42.678;23.372;2023-01-01T09:17:00;96642.88;;;9.68;52.30
14393;BME280;7281;42.678;23.372;2023-01-01T09:19:28;96632.84;;;9.65;52.63
14393;BME280;7281;42.678;23.372;2023-01-01T09:21:55;96628.00;;;10.06;52.34
14393;BME280;7281;42.678;23.372;2023-01-01T09:24:22;96631.88;;;10.41;51.40
14393;BME280;7281;42.678;23.372;2023-01-01T09:26:49;96627.59;;;10.47;53.28
14393;BME280;7281;42.678;23.372;2023-01-01T09:29:16;96619.63;;;10.84;52.09
14393;BME280;7281;42.678;23.372;2023-01-01T09:31:48;96614.84;;;10.81;51.87
14393;BME280;7281;42.678;23.372;2023-01-01T09:34:15;96604.84;;;11.14;50.34
14393;BME280;7281;42.678;23.372;2023-01-01T09:36:44;96610.81;;;11.21;49.02
14393;BME280;7281;42.678;23.372;2023-01-01T09:39:12;96611.31;;;11.12;48.97
14393;BME280;7281;42.678;23.372;2023-01-01T09:46:45;96605.19;;;11.00;49.41
14393;BME280;7281;42.678;23.372;2023-01-01T09:49:30;96589.69;;;11.35;48.80
14393;BME280;7281;42.678;23.372;2023-01-01T09:51:59;96606.38;;;11.58;47.82
14393;BME280;7281;42.678;23.372;2023-01-01T09:54:40;96592.75;;;11.68;48.26
14393;BME280;7281;42.678;23.372;2023-01-01T09:57:11;96588.53;;;11.67;48.43
14393;BME280;7281;42.678;23.372;2023-01-01T09:59:45;96600.75;;;11.18;48.53
14393;BME280;7281;42.678;23.372;2023-01-01T10:05:06;96590.13;;;11.32;49.02
14393;BME280;7281;42.678;23.372;2023-01-01T10:10:14;96588.69;;;12.01;47.70
14393;BME280;7281;42.678;23.372;2023-01-01T10:13:06;96578.47;;;12.23;47.48
14393;BME280;7281;42.678;23.372;2023-01-01T10:15:40;96572.78;;;12.26;48.64
14393;BME280;7281;42.678;23.372;2023-01-01T10:18:16;96573.28;;;12.46;47.37
14393;BME280;7281;42.678;23.372;2023-01-01T10:23:34;96578.25;;;12.24;48.00
14393;BME280;7281;42.678;23.372;2023-01-01T10:26:14;96570.19;;;12.08;48.10
14393;BME280;7281;42.678;23.372;2023-01-01T10:29:01;96556.47;;;12.47;47.90
14393;BME280;7281;42.678;23.372;2023-01-01T10:31:34;96568.09;;;12.28;47.08
14393;BME280;7281;42.678;23.372;2023-01-01T10:34:16;96566.56;;;12.09;48.43
14393;BME280;7281;42.678;23.372;2023-01-01T10:36:45;96561.34;;;12.32;48.16
14393;BME280;7281;42.678;23.372;2023-01-01T10:39:16;96555.09;;;12.45;47.60
14393;BME280;7281;42.678;23.372;2023-01-01T10:41:44;96545.22;;;12.29;48.38
14393;BME280;7281;42.678;23.372;2023-01-01T10:44:12;96537.69;;;12.32;48.22
14393;BME280;7281;42.678;23.372;2023-01-01T10:46:45;96542.88;;;12.50;48.12
14393;BME280;7281;42.678;23.372;2023-01-01T10:49:14;96540.13;;;12.68;47.38
14393;BME280;7281;42.678;23.372;2023-01-01T10:51:44;96530.66;;;12.67;46.83
14393;BME280;7281;42.678;23.372;2023-01-01T10:54:37;96529.13;;;12.48;46.98
14393;BME280;7281;42.678;23.372;2023-01-01T10:57:17;96524.34;;;12.45;48.84
14393;BME280;7281;42.678;23.372;2023-01-01T10:59:46;96519.09;;;12.68;48.48
14393;BME280;7281;42.678;23.372;2023-01-01T11:02:24;96516.34;;;12.63;48.40
14393;BME280;7281;42.678;23.372;2023-01-01T11:05:15;96505.56;;;12.99;47.54
14393;BME280;7281;42.678;23.372;2023-01-01T11:07:47;96500.22;;;12.83;47.31
14393;BME280;7281;42.678;23.372;2023-01-01T11:10:33;96500.56;;;13.09;46.98
14393;BME280;7281;42.678;23.372;2023-01-01T11:13:00;96499.09;;;12.56;47.85
14393;BME280;7281;42.678;23.372;2023-01-01T11:15:38;96503.66;;;12.72;47.85
14393;BME280;7281;42.678;23.372;2023-01-01T11:18:20;96489.34;;;12.79;47.22
14393;BME280;7281;42.678;23.372;2023-01-01T11:20:56;96480.22;;;12.93;47.62
14393;BME280;7281;42.678;23.372;2023-01-01T11:25:58;96483.13;;;13.32;48.72
14393;BME280;7281;42.678;23.372;2023-01-01T11:28:29;96480.31;;;13.94;46.71
14393;BME280;7281;42.678;23.372;2023-01-01T11:31:17;96469.19;;;13.76;45.66
14393;BME280;7281;42.678;23.372;2023-01-01T11:33:53;96472.28;;;13.28;45.93
14393;BME280;7281;42.678;23.372;2023-01-01T11:36:26;96472.22;;;13.40;45.87
14393;BME280;7281;42.678;23.372;2023-01-01T11:39:24;96461.09;;;13.38;46.96
14393;BME280;7281;42.678;23.372;2023-01-01T11:41:54;96455.66;;;13.56;46.65
14393;BME280;7281;42.678;23.372;2023-01-01T11:44:42;96449.53;;;13.67;46.16
14393;BME280;7281;42.678;23.372;2023-01-01T11:47:21;96460.84;;;13.95;45.59
14393;BME280;7281;42.678;23.372;2023-01-01T11:50:05;96451.53;;;13.60;45.72
14393;BME280;7281;42.678;23.372;2023-01-01T11:55:17;96438.59;;;14.36;44.80
14393;BME280;7281;42.678;23.372;2023-01-01T11:58:01;96436.97;;;15.11;44.29
14393;BME280;7281;42.678;23.372;2023-01-01T12:00:33;96429.03;;;16.13;41.15
14393;BME280;7281;42.678;23.372;2023-01-01T12:03:19;96433.31;;;16.97;40.35
14393;BME280;7281;42.678;23.372;2023-01-01T12:08:44;96419.63;;;18.43;38.17
14393;BME280;7281;42.678;23.372;2023-01-01T12:11:24;96421.19;;;18.39;38.12
14393;BME280;7281;42.678;23.372;2023-01-01T12:13:58;96406.38;;;19.16;37.81
14393;BME280;7281;42.678;23.372;2023-01-01T12:19:22;96400.63;;;21.11;34.08
14393;BME280;7281;42.678;23.372;2023-01-01T12:21:54;96401.13;;;20.90;32.74
14393;BME280;7281;42.678;23.372;2023-01-01T12:24:24;96393.91;;;20.90;33.83
14393;BME280;7281;42.678;23.372;2023-01-01T12:27:17;96396.94;;;20.55;33.57
14393;BME280;7281;42.678;23.372;2023-01-01T12:32:29;96387.25;;;20.07;33.92
14393;BME280;7281;42.678;23.372;2023-01-01T12:46:18;96396.72;;;20.52;32.42
14393;BME280;7281;42.678;23.372;2023-01-01T12:48:53;96387.44;;;21.44;31.17
14393;BME280;7281;42.678;23.372;2023-01-01T12:57:07;96383.19;;;23.03;29.38
14393;BME280;7281;42.678;23.372;2023-01-01T12:59:39;96387.84;;;23.11;28.99
14393;BME280;7281;42.678;23.372;2023-01-01T13:02:21;96384.97;;;22.94;28.69
14393;BME280;7281;42.678;23.372;2023-01-01T13:04:52;96376.16;;;22.35;29.24
14393;BME280;7281;42.678;23.372;2023-01-01T13:07:37;96389.81;;;22.33;29.35
14393;BME280;7281;42.678;23.372;2023-01-01T13:10:26;96381.09;;;22.87;28.80
14393;BME280;7281;42.678;23.372;2023-01-01T13:12:55;96386.53;;;22.68;28.86
14393;BME280;7281;42.678;23.372;2023-01-01T13:20:52;96371.03;;;22.38;29.08
14393;BME280;7281;42.678;23.372;2023-01-01T13:42:40;96390.13;;;16.03;39.21
14393;BME280;7281;42.678;23.372;2023-01-01T13:45:14;96390.97;;;15.82;39.72
14393;BME280;7281;42.678;23.372;2023-01-01T13:48:43;96397.78;;;15.73;40.17
14393;BME280;7281;42.678;23.372;2023-01-01T14:00:17;96409.97;;;15.04;41.22
14393;BME280;7281;42.678;23.372;2023-01-01T14:03:14;96407.81;;;15.23;42.05
14393;BME280;7281;42.678;23.372;2023-01-01T14:05:49;96405.03;;;15.35;40.93
14393;BME280;7281;42.678;23.372;2023-01-01T14:08:33;96408.91;;;15.05;41.28
14393;BME280;7281;42.678;23.372;2023-01-01T14:11:14;96404.44;;;14.84;41.80
14393;BME280;7281;42.678;23.372;2023-01-01T14:13:42;96415.22;;;14.61;42.85
14393;BME280;7281;42.678;23.372;2023-01-01T14:16:09;96404.53;;;14.51;43.18
14393;BME280;7281;42.678;23.372;2023-01-01T14:18:50;96404.13;;;14.26;43.74
14393;BME280;7281;42.678;23.372;2023-01-01T14:21:22;96403.50;;;14.19;44.11
14393;BME280;7281;42.678;23.372;2023-01-01T14:24:06;96399.75;;;14.15;44.03
14393;BME280;7281;42.678;23.372;2023-01-01T14:26:36;96407.09;;;14.13;44.57
14393;BME280;7281;42.678;23.372;2023-01-01T14:29:06;96399.69;;;13.93;44.78
14393;BME280;7281;42.678;23.372;2023-01-01T14:31:39;96410.91;;;13.72;45.49
14393;BME280;7281;42.678;23.372;2023-01-01T14:34:28;96401.72;;;13.58;45.84
14393;BME280;7281;42.678;23.372;2023-01-01T14:37:03;96407.88;;;13.64;44.79
14393;BME280;7281;42.678;23.372;2023-01-01T14:39:34;96410.06;;;13.39;46.55
14393;BME280;7281;42.678;23.372;2023-01-01T14:42:07;96423.03;;;13.29;46.29
14393;BME280;7281;42.678;23.372;2023-01-01T14:44:37;96412.88;;;13.20;46.59
14393;BME280;7281;42.678;23.372;2023-01-01T14:47:26;96423.56;;;12.91;47.81
14393;BME280;7281;42.678;23.372;2023-01-01T14:50:01;96406.78;;;12.80;47.63
14393;BME280;7281;42.678;23.372;2023-01-01T14:52:28;96420.50;;;12.82;47.75
14393;BME280;7281;42.678;23.372;2023-01-01T14:54:58;96423.25;;;12.87;48.68
14393;BME280;7281;42.678;23.372;2023-01-01T14:57:34;96420.13;;;13.13;47.88
14393;BME280;7281;42.678;23.372;2023-01-01T15:00:23;96409.81;;;13.12;47.58
14393;BME280;7281;42.678;23.372;2023-01-01T15:02:50;96421.78;;;12.80;48.07
14393;BME280;7281;42.678;23.372;2023-01-01T15:05:30;96415.97;;;12.66;47.70
14393;BME280;7281;42.678;23.372;2023-01-01T15:08:04;96427.66;;;12.47;49.37
14393;BME280;7281;42.678;23.372;2023-01-01T15:10:35;96430.38;;;12.29;49.58
14393;BME280;7281;42.678;23.372;2023-01-01T15:13:06;96431.97;;;12.30;49.55
14393;BME280;7281;42.678;23.372;2023-01-01T15:15:35;96430.59;;;12.39;49.32
14393;BME280;7281;42.678;23.372;2023-01-01T15:18:02;96427.88;;;12.34;49.28
14393;BME280;7281;42.678;23.372;2023-01-01T15:20:30;96429.50;;;12.35;49.22
14393;BME280;7281;42.678;23.372;2023-01-01T15:22:57;96428.31;;;12.19;49.67
14393;BME280;7281;42.678;23.372;2023-01-01T15:25:33;96429.16;;;11.79;50.82
14393;BME280;7281;42.678;23.372;2023-01-01T15:28:03;96426.81;;;11.89;51.07
14393;BME280;7281;42.678;23.372;2023-01-01T15:30:32;96420.06;;;12.04;50.54
14393;BME280;7281;42.678;23.372;2023-01-01T15:33:07;96423.41;;;12.00;51.03